sensor_id;sensor_type;location;lat;lon;timestamp;P1;durP1;ratioP1;P2;durP2;ratioP2
51266;SDS011;37338;47.426;19.204;2023-09-12T00:01:24;13.18;;;6.05;;
51266;SDS011;37338;47.426;19.204;2023-09-12T00:03:49;15.00;;;5.47;;
51266;SDS011;37338;47.426;19.204;2023-09-12T00:06:15;14.68;;;5.88;;
51266;SDS011;37338;47.426;19.204;2023-09-12T00:08:41;13.95;;;5.53;;
51266;SDS011;37338;47.426;19.204;2023-09-12T00:11:08;13.98;;;5.70;;
51266;SDS011;37338;47.426;19.204;2023-09-12T00:13:38;13.50;;;5.47;;
51266;SDS011;37338;47.426;19.204;2023-09-12T00:16:04;14.63;;;5.68;;
51266;SDS011;37338;47.426;19.204;2023-09-12T00:18:30;19.52;;;6.47;;
51266;SDS011;37338;47.426;19.204;2023-09-12T00:20:56;13.32;;;5.90;;
51266;SDS011;37338;47.426;19.204;2023-09-12T00:23:22;15.48;;;5.88;;
51266;SDS011;37338;47.426;19.204;2023-09-12T00:25:50;14.98;;;6.28;;
51266;SDS011;37338;47.426;19.204;2023-09-12T00:28:19;15.93;;;6.60;;
51266;SDS011;37338;47.426;19.204;2023-09-12T00:30:45;14.65;;;6.55;;
51266;SDS011;37338;47.426;19.204;2023-09-12T00:33:10;16.35;;;6.43;;
51266;SDS011;37338;47.426;19.204;2023-09-12T00:35:36;12.90;;;6.13;;
51266;SDS011;37338;47.426;19.204;2023-09-12T00:38:01;17.48;;;6.60;;
51266;SDS011;37338;47.426;19.204;2023-09-12T00:40:27;16.17;;;6.40;;
51266;SDS011;37338;47.426;19.204;2023-09-12T00:42:52;15.07;;;7.47;;
51266;SDS011;37338;47.426;19.204;2023-09-12T00:45:17;12.63;;;6.95;;
51266;SDS011;37338;47.426;19.204;2023-09-12T00:47:43;18.98;;;7.32;;
51266;SDS011;37338;47.426;19.204;2023-09-12T00:50:09;15.82;;;7.72;;
51266;SDS011;37338;47.426;19.204;2023-09-12T00:52:36;18.85;;;7.75;;
51266;SDS011;37338;47.426;19.204;2023-09-12T00:55:01;13.65;;;6.43;;
51266;SDS011;37338;47.426;19.204;2023-09-12T00:57:27;13.10;;;6.03;;
51266;SDS011;37338;47.426;19.204;2023-09-12T00:59:53;18.30;;;7.40;;
51266;SDS011;37338;47.426;19.204;2023-09-12T01:02:19;12.65;;;7.50;;
51266;SDS011;37338;47.426;19.204;2023-09-12T01:04:45;16.75;;;6.38;;
51266;SDS011;37338;47.426;19.204;2023-09-12T01:07:11;17.02;;;7.72;;
51266;SDS011;37338;47.426;19.204;2023-09-12T01:09:36;17.52;;;5.95;;
51266;SDS011;37338;47.426;19.204;2023-09-12T01:12:02;14.63;;;7.18;;
51266;SDS011;37338;47.426;19.204;2023-09-12T01:14:28;17.88;;;5.82;;
51266;SDS011;37338;47.426;19.204;2023-09-12T01:16:54;16.73;;;6.50;;
51266;SDS011;37338;47.426;19.204;2023-09-12T01:19:20;11.95;;;5.78;;
51266;SDS011;37338;47.426;19.204;2023-09-12T01:27:19;11.80;;;5.80;;
51266;SDS011;37338;47.426;19.204;2023-09-12T01:29:53;15.20;;;5.85;;
51266;SDS011;37338;47.426;19.204;2023-09-12T01:32:21;17.02;;;6.85;;
51266;SDS011;37338;47.426;19.204;2023-09-12T01:34:47;9.60;;;6.00;;
51266;SDS011;37338;47.426;19.204;2023-09-12T01:37:12;15.23;;;6.30;;
51266;SDS011;37338;47.426;19.204;2023-09-12T01:39:38;9.38;;;5.38;;
51266;SDS011;37338;47.426;19.204;2023-09-12T01:42:03;15.55;;;6.38;;
51266;SDS011;37338;47.426;19.204;2023-09-12T01:44:30;20.67;;;5.72;;
51266;SDS011;37338;47.426;19.204;2023-09-12T01:46:57;14.00;;;5.45;;
51266;SDS011;37338;47.426;19.204;2023-09-12T01:49:27;15.88;;;5.28;;
51266;SDS011;37338;47.426;19.204;2023-09-12T01:51:53;19.23;;;6.10;;
51266;SDS011;37338;47.426;19.204;2023-09-12T01:54:19;15.48;;;6.88;;
51266;SDS011;37338;47.426;19.204;2023-09-12T01:56:45;14.10;;;5.43;;
51266;SDS011;37338;47.426;19.204;2023-09-12T01:59:11;18.13;;;6.30;;
51266;SDS011;37338;47.426;19.204;2023-09-12T02:01:36;17.88;;;6.38;;
51266;SDS011;37338;47.426;19.204;2023-09-12T02:04:01;13.70;;;6.05;;
51266;SDS011;37338;47.426;19.204;2023-09-12T02:06:27;14.77;;;6.07;;
51266;SDS011;37338;47.426;19.204;2023-09-12T02:08:52;9.95;;;5.15;;
51266;SDS011;37338;47.426;19.204;2023-09-12T02:11:18;11.23;;;6.30;;
51266;SDS011;37338;47.426;19.204;2023-09-12T02:13:43;16.10;;;5.22;;
51266;SDS011;37338;47.426;19.204;2023-09-12T02:16:08;18.02;;;6.85;;
51266;SDS011;37338;47.426;19.204;2023-09-12T02:18:34;11.43;;;5.35;;
51266;SDS011;37338;47.426;19.204;2023-09-12T02:20:59;12.68;;;5.95;;
51266;SDS011;37338;47.426;19.204;2023-09-12T02:23:24;12.30;;;5.75;;
51266;SDS011;37338;47.426;19.204;2023-09-12T02:25:50;13.68;;;5.78;;
51266;SDS011;37338;47.426;19.204;2023-09-12T02:28:15;11.90;;;5.95;;
51266;SDS011;37338;47.426;19.204;2023-09-12T02:30:41;13.50;;;5.97;;
51266;SDS011;37338;47.426;19.204;2023-09-12T02:33:06;13.00;;;5.35;;
51266;SDS011;37338;47.426;19.204;2023-09-12T02:35:31;14.25;;;5.60;;
51266;SDS011;37338;47.426;19.204;2023-09-12T02:37:57;11.80;;;4.65;;
51266;SDS011;37338;47.426;19.204;2023-09-12T02:40:22;13.32;;;5.10;;
51266;SDS011;37338;47.426;19.204;2023-09-12T02:42:48;24.40;;;6.22;;
51266;SDS011;37338;47.426;19.204;2023-09-12T02:45:13;13.85;;;5.90;;
51266;SDS011;37338;47.426;19.204;2023-09-12T02:47:38;15.07;;;5.50;;
51266;SDS011;37338;47.426;19.204;2023-09-12T02:50:04;11.10;;;5.82;;
51266;SDS011;37338;47.426;19.204;2023-09-12T02:52:29;16.60;;;5.95;;
51266;SDS011;37338;47.426;19.204;2023-09-12T02:54:55;15.13;;;6.22;;
51266;SDS011;37338;47.426;19.204;2023-09-12T02:57:20;16.00;;;5.50;;
51266;SDS011;37338;47.426;19.204;2023-09-12T02:59:46;13.23;;;6.13;;
51266;SDS011;37338;47.426;19.204;2023-09-12T03:02:12;14.80;;;5.85;;
51266;SDS011;37338;47.426;19.204;2023-09-12T03:04:37;16.88;;;5.82;;
51266;SDS011;37338;47.426;19.204;2023-09-12T03:07:03;13.75;;;5.35;;
51266;SDS011;37338;47.426;19.204;2023-09-12T03:09:28;11.63;;;5.25;;
51266;SDS011;37338;47.426;19.204;2023-09-12T03:11:53;10.63;;;5.32;;
51266;SDS011;37338;47.426;19.204;2023-09-12T03:14:19;13.18;;;5.45;;
51266;SDS011;37338;47.426;19.204;2023-09-12T03:16:44;13.18;;;6.10;;
51266;SDS011;37338;47.426;19.204;2023-09-12T03:19:10;14.30;;;5.60;;
51266;SDS011;37338;47.426;19.204;2023-09-12T03:21:35;15.63;;;5.82;;
51266;SDS011;37338;47.426;19.204;2023-09-12T03:24:00;13.95;;;5.93;;
51266;SDS011;37338;47.426;19.204;2023-09-12T03:26:26;22.42;;;6.57;;
51266;SDS011;37338;47.426;19.204;2023-09-12T03:28:51;10.55;;;6.03;;
51266;SDS011;37338;47.426;19.204;2023-09-12T03:31:17;14.73;;;6.13;;
51266;SDS011;37338;47.426;19.204;2023-09-12T03:33:43;15.63;;;6.25;;
51266;SDS011;37338;47.426;19.204;2023-09-12T03:36:14;16.77;;;5.45;;
51266;SDS011;37338;47.426;19.204;2023-09-12T03:38:40;16.92;;;7.03;;
51266;SDS011;37338;47.426;19.204;2023-09-12T03:41:05;13.88;;;5.43;;
51266;SDS011;37338;47.426;19.204;2023-09-12T03:43:32;12.90;;;5.45;;
51266;SDS011;37338;47.426;19.204;2023-09-12T03:45:58;8.38;;;5.35;;
51266;SDS011;37338;47.426;19.204;2023-09-12T03:48:23;11.05;;;5.50;;
51266;SDS011;37338;47.426;19.204;2023-09-12T03:50:48;15.75;;;7.50;;
51266;SDS011;37338;47.426;19.204;2023-09-12T03:53:14;21.13;;;5.93;;
51266;SDS011;37338;47.426;19.204;2023-09-12T03:55:40;15.57;;;6.03;;
51266;SDS011;37338;47.426;19.204;2023-09-12T03:58:05;19.02;;;5.93;;
51266;SDS011;37338;47.426;19.204;2023-09-12T04:00:30;17.08;;;5.15;;
51266;SDS011;37338;47.426;19.204;2023-09-12T04:02:56;9.35;;;4.55;;
51266;SDS011;37338;47.426;19.204;2023-09-12T04:05:21;13.43;;;6.03;;
51266;SDS011;37338;47.426;19.204;2023-09-12T04:07:47;15.20;;;5.35;;
51266;SDS011;37338;47.426;19.204;2023-09-12T04:10:12;20.02;;;5.50;;
51266;SDS011;37338;47.426;19.204;2023-09-12T04:12:38;13.93;;;5.35;;
51266;SDS011;37338;47.426;19.204;2023-09-12T04:15:04;15.90;;;6.15;;
51266;SDS011;37338;47.426;19.204;2023-09-12T04:17:30;16.02;;;5.88;;
51266;SDS011;37338;47.426;19.204;2023-09-12T04:19:55;14.48;;;5.43;;
51266;SDS011;37338;47.426;19.204;2023-09-12T04:22:20;13.65;;;6.75;;
51266;SDS011;37338;47.426;19.204;2023-09-12T04:24:46;10.13;;;4.90;;
51266;SDS011;37338;47.426;19.204;2023-09-12T04:27:11;15.38;;;5.93;;
51266;SDS011;37338;47.426;19.204;2023-09-12T04:29:37;9.98;;;5.47;;
51266;SDS011;37338;47.426;19.204;2023-09-12T04:32:05;15.25;;;5.93;;
51266;SDS011;37338;47.426;19.204;2023-09-12T04:34:31;14.63;;;5.63;;
51266;SDS011;37338;47.426;19.204;2023-09-12T04:36:56;18.63;;;5.45;;
51266;SDS011;37338;47.426;19.204;2023-09-12T04:39:22;23.33;;;5.90;;
51266;SDS011;37338;47.426;19.204;2023-09-12T04:41:47;14.65;;;5.03;;
51266;SDS011;37338;47.426;19.204;2023-09-12T04:44:13;16.10;;;5.82;;
51266;SDS011;37338;47.426;19.204;2023-09-12T04:46:38;17.10;;;5.93;;
51266;SDS011;37338;47.426;19.204;2023-09-12T04:49:04;18.92;;;6.63;;
51266;SDS011;37338;47.426;19.204;2023-09-12T04:51:29;18.25;;;7.00;;
51266;SDS011;37338;47.426;19.204;2023-09-12T04:53:54;20.52;;;5.88;;
51266;SDS011;37338;47.426;19.204;2023-09-12T04:56:20;16.95;;;5.97;;
51266;SDS011;37338;47.426;19.204;2023-09-12T04:58:46;13.77;;;6.30;;
51266;SDS011;37338;47.426;19.204;2023-09-12T05:01:11;25.02;;;6.30;;
51266;SDS011;37338;47.426;19.204;2023-09-12T05:03:37;18.17;;;6.22;;
51266;SDS011;37338;47.426;19.204;2023-09-12T05:06:02;15.43;;;6.88;;
51266;SDS011;37338;47.426;19.204;2023-09-12T05:08:28;25.58;;;14.27;;
51266;SDS011;37338;47.426;19.204;2023-09-12T05:10:54;31.02;;;17.75;;
51266;SDS011;37338;47.426;19.204;2023-09-12T05:13:19;29.88;;;18.17;;
51266;SDS011;37338;47.426;19.204;2023-09-12T05:15:45;21.92;;;9.73;;
51266;SDS011;37338;47.426;19.204;2023-09-12T05:18:11;24.27;;;7.03;;
51266;SDS011;37338;47.426;19.204;2023-09-12T05:20:37;19.08;;;6.03;;
51266;SDS011;37338;47.426;19.204;2023-09-12T05:23:02;22.92;;;7.07;;
51266;SDS011;37338;47.426;19.204;2023-09-12T05:25:28;21.85;;;5.97;;
51266;SDS011;37338;47.426;19.204;2023-09-12T05:27:54;20.55;;;6.32;;
51266;SDS011;37338;47.426;19.204;2023-09-12T05:30:19;18.65;;;7.15;;
51266;SDS011;37338;47.426;19.204;2023-09-12T05:32:45;18.45;;;6.47;;
51266;SDS011;37338;47.426;19.204;2023-09-12T05:35:10;23.95;;;7.30;;
51266;SDS011;37338;47.426;19.204;2023-09-12T05:37:35;17.27;;;6.60;;
51266;SDS011;37338;47.426;19.204;2023-09-12T05:40:01;25.77;;;6.85;;
51266;SDS011;37338;47.426;19.204;2023-09-12T05:42:28;18.77;;;7.00;;
51266;SDS011;37338;47.426;19.204;2023-09-12T05:44:53;24.00;;;6.72;;
51266;SDS011;37338;47.426;19.204;2023-09-12T05:47:19;25.67;;;7.25;;
51266;SDS011;37338;47.426;19.204;2023-09-12T05:49:45;26.70;;;6.63;;
51266;SDS011;37338;47.426;19.204;2023-09-12T05:52:10;23.70;;;7.85;;
51266;SDS011;37338;47.426;19.204;2023-09-12T05:54:36;19.60;;;5.97;;
51266;SDS011;37338;47.426;19.204;2023-09-12T05:57:02;21.25;;;6.20;;
51266;SDS011;37338;47.426;19.204;2023-09-12T05:59:27;13.95;;;6.22;;
51266;SDS011;37338;47.426;19.204;2023-09-12T06:01:53;25.33;;;7.07;;
51266;SDS011;37338;47.426;19.204;2023-09-12T06:04:18;32.45;;;7.22;;
51266;SDS011;37338;47.426;19.204;2023-09-12T06:06:45;24.73;;;6.65;;
51266;SDS011;37338;47.426;19.204;2023-09-12T06:09:11;19.75;;;6.07;;
51266;SDS011;37338;47.426;19.204;2023-09-12T06:11:36;17.00;;;5.28;;
51266;SDS011;37338;47.426;19.204;2023-09-12T06:14:02;19.02;;;5.88;;
51266;SDS011;37338;47.426;19.204;2023-09-12T06:16:27;16.98;;;6.55;;
51266;SDS011;37338;47.426;19.204;2023-09-12T06:18:53;22.95;;;6.05;;
51266;SDS011;37338;47.426;19.204;2023-09-12T06:21:18;15.55;;;5.60;;
51266;SDS011;37338;47.426;19.204;2023-09-12T06:23:46;19.52;;;4.97;;
51266;SDS011;37338;47.426;19.204;2023-09-12T06:26:20;19.33;;;5.55;;
51266;SDS011;37338;47.426;19.204;2023-09-12T06:28:46;16.52;;;6.35;;
51266;SDS011;37338;47.426;19.204;2023-09-12T06:31:11;18.30;;;5.40;;
51266;SDS011;37338;47.426;19.204;2023-09-12T06:33:37;12.98;;;5.30;;
51266;SDS011;37338;47.426;19.204;2023-09-12T06:36:03;17.20;;;4.90;;
51266;SDS011;37338;47.426;19.204;2023-09-12T06:38:29;12.45;;;5.43;;
51266;SDS011;37338;47.426;19.204;2023-09-12T06:40:54;16.75;;;5.47;;
51266;SDS011;37338;47.426;19.204;2023-09-12T06:43:21;19.70;;;6.10;;
51266;SDS011;37338;47.426;19.204;2023-09-12T06:45:47;24.88;;;6.28;;
51266;SDS011;37338;47.426;19.204;2023-09-12T06:48:13;29.63;;;6.75;;
51266;SDS011;37338;47.426;19.204;2023-09-12T06:50:38;34.38;;;7.22;;
51266;SDS011;37338;47.426;19.204;2023-09-12T06:53:04;33.70;;;7.07;;
51266;SDS011;37338;47.426;19.204;2023-09-12T06:55:32;36.47;;;7.45;;
51266;SDS011;37338;47.426;19.204;2023-09-12T06:57:57;47.63;;;7.80;;
51266;SDS011;37338;47.426;19.204;2023-09-12T07:00:23;47.78;;;9.10;;
51266;SDS011;37338;47.426;19.204;2023-09-12T07:02:49;40.97;;;7.63;;
51266;SDS011;37338;47.426;19.204;2023-09-12T07:05:14;33.95;;;6.82;;
51266;SDS011;37338;47.426;19.204;2023-09-12T07:07:40;40.33;;;8.35;;
51266;SDS011;37338;47.426;19.204;2023-09-12T07:10:05;26.25;;;6.80;;
51266;SDS011;37338;47.426;19.204;2023-09-12T07:12:31;24.00;;;6.68;;
51266;SDS011;37338;47.426;19.204;2023-09-12T07:14:58;20.88;;;7.03;;
51266;SDS011;37338;47.426;19.204;2023-09-12T07:17:23;25.13;;;8.10;;
51266;SDS011;37338;47.426;19.204;2023-09-12T07:19:48;24.63;;;6.32;;
51266;SDS011;37338;47.426;19.204;2023-09-12T07:22:14;23.65;;;7.38;;
51266;SDS011;37338;47.426;19.204;2023-09-12T07:24:39;24.58;;;6.40;;
51266;SDS011;37338;47.426;19.204;2023-09-12T07:27:05;18.70;;;6.85;;
51266;SDS011;37338;47.426;19.204;2023-09-12T07:29:30;17.23;;;6.28;;
51266;SDS011;37338;47.426;19.204;2023-09-12T07:31:55;17.10;;;6.75;;
51266;SDS011;37338;47.426;19.204;2023-09-12T07:34:21;20.95;;;6.10;;
51266;SDS011;37338;47.426;19.204;2023-09-12T07:36:46;27.98;;;6.10;;
51266;SDS011;37338;47.426;19.204;2023-09-12T07:39:12;27.80;;;6.63;;
51266;SDS011;37338;47.426;19.204;2023-09-12T07:41:38;20.83;;;7.65;;
51266;SDS011;37338;47.426;19.204;2023-09-12T07:44:03;20.35;;;6.50;;
51266;SDS011;37338;47.426;19.204;2023-09-12T07:46:30;16.15;;;5.93;;
51266;SDS011;37338;47.426;19.204;2023-09-12T07:48:55;19.38;;;6.35;;
51266;SDS011;37338;47.426;19.204;2023-09-12T07:51:23;46.83;;;8.02;;
51266;SDS011;37338;47.426;19.204;2023-09-12T07:53:49;19.75;;;7.13;;
51266;SDS011;37338;47.426;19.204;2023-09-12T07:56:14;27.55;;;6.13;;
51266;SDS011;37338;47.426;19.204;2023-09-12T07:58:40;23.33;;;5.90;;
51266;SDS011;37338;47.426;19.204;2023-09-12T08:01:08;15.52;;;4.93;;
51266;SDS011;37338;47.426;19.204;2023-09-12T08:03:35;31.45;;;6.40;;
51266;SDS011;37338;47.426;19.204;2023-09-12T08:06:01;19.25;;;6.45;;
51266;SDS011;37338;47.426;19.204;2023-09-12T08:08:28;19.98;;;5.95;;
51266;SDS011;37338;47.426;19.204;2023-09-12T08:10:54;13.77;;;5.20;;
51266;SDS011;37338;47.426;19.204;2023-09-12T08:13:19;12.52;;;5.35;;
51266;SDS011;37338;47.426;19.204;2023-09-12T08:15:45;19.42;;;5.25;;
51266;SDS011;37338;47.426;19.204;2023-09-12T08:18:10;19.48;;;5.60;;
51266;SDS011;37338;47.426;19.204;2023-09-12T08:20:36;18.42;;;4.90;;
51266;SDS011;37338;47.426;19.204;2023-09-12T08:23:01;17.85;;;4.25;;
51266;SDS011;37338;47.426;19.204;2023-09-12T08:25:27;18.05;;;4.68;;
51266;SDS011;37338;47.426;19.204;2023-09-12T08:27:52;37.45;;;6.38;;
51266;SDS011;37338;47.426;19.204;2023-09-12T08:30:18;16.20;;;4.50;;
51266;SDS011;37338;47.426;19.204;2023-09-12T08:32:43;17.00;;;4.60;;
51266;SDS011;37338;47.426;19.204;2023-09-12T08:35:12;21.08;;;6.07;;
51266;SDS011;37338;47.426;19.204;2023-09-12T08:37:39;16.20;;;4.85;;
51266;SDS011;37338;47.426;19.204;2023-09-12T08:40:05;12.75;;;5.07;;
51266;SDS011;37338;47.426;19.204;2023-09-12T08:42:33;14.88;;;4.38;;
51266;SDS011;37338;47.426;19.204;2023-09-12T08:45:05;17.13;;;5.00;;
51266;SDS011;37338;47.426;19.204;2023-09-12T08:47:32;12.48;;;4.22;;
51266;SDS011;37338;47.426;19.204;2023-09-12T08:49:59;10.25;;;4.07;;
51266;SDS011;37338;47.426;19.204;2023-09-12T08:52:25;12.85;;;4.82;;
51266;SDS011;37338;47.426;19.204;2023-09-12T08:54:50;17.50;;;4.95;;
51266;SDS011;37338;47.426;19.204;2023-09-12T08:57:16;18.48;;;4.53;;
51266;SDS011;37338;47.426;19.204;2023-09-12T08:59:41;12.55;;;4.18;;
51266;SDS011;37338;47.426;19.204;2023-09-12T09:02:08;12.25;;;5.28;;
51266;SDS011;37338;47.426;19.204;2023-09-12T09:04:34;10.48;;;4.18;;
51266;SDS011;37338;47.426;19.204;2023-09-12T09:07:00;11.07;;;4.25;;
51266;SDS011;37338;47.426;19.204;2023-09-12T09:09:26;12.45;;;4.28;;
51266;SDS011;37338;47.426;19.204;2023-09-12T09:11:55;16.20;;;4.35;;
51266;SDS011;37338;47.426;19.204;2023-09-12T09:14:20;10.27;;;3.70;;
51266;SDS011;37338;47.426;19.204;2023-09-12T09:16:46;13.05;;;4.60;;
51266;SDS011;37338;47.426;19.204;2023-09-12T09:19:11;17.35;;;4.10;;
51266;SDS011;37338;47.426;19.204;2023-09-12T09:21:37;15.80;;;3.95;;
51266;SDS011;37338;47.426;19.204;2023-09-12T09:24:09;13.38;;;4.03;;
51266;SDS011;37338;47.426;19.204;2023-09-12T09:29:13;13.02;;;4.28;;
51266;SDS011;37338;47.426;19.204;2023-09-12T09:31:43;13.00;;;3.63;;
51266;SDS011;37338;47.426;19.204;2023-09-12T09:34:16;10.95;;;4.20;;
51266;SDS011;37338;47.426;19.204;2023-09-12T09:36:50;10.52;;;3.45;;
51266;SDS011;37338;47.426;19.204;2023-09-12T09:39:20;10.45;;;3.90;;
51266;SDS011;37338;47.426;19.204;2023-09-12T09:41:50;7.20;;;3.40;;
51266;SDS011;37338;47.426;19.204;2023-09-12T09:44:16;9.05;;;3.33;;
51266;SDS011;37338;47.426;19.204;2023-09-12T09:46:45;12.05;;;3.55;;
51266;SDS011;37338;47.426;19.204;2023-09-12T09:49:11;15.93;;;4.00;;
51266;SDS011;37338;47.426;19.204;2023-09-12T09:51:42;12.15;;;3.97;;
51266;SDS011;37338;47.426;19.204;2023-09-12T09:54:09;8.50;;;3.50;;
51266;SDS011;37338;47.426;19.204;2023-09-12T09:59:13;18.52;;;3.53;;
51266;SDS011;37338;47.426;19.204;2023-09-12T10:01:40;11.32;;;4.00;;
51266;SDS011;37338;47.426;19.204;2023-09-12T10:04:06;12.48;;;3.03;;
51266;SDS011;37338;47.426;19.204;2023-09-12T10:06:32;12.05;;;4.05;;
51266;SDS011;37338;47.426;19.204;2023-09-12T10:09:01;8.32;;;2.97;;
51266;SDS011;37338;47.426;19.204;2023-09-12T10:11:31;13.07;;;4.22;;
51266;SDS011;37338;47.426;19.204;2023-09-12T10:13:59;14.30;;;3.55;;
51266;SDS011;37338;47.426;19.204;2023-09-12T10:16:35;10.02;;;3.58;;
51266;SDS011;37338;47.426;19.204;2023-09-12T10:24:13;9.25;;;3.13;;
51266;SDS011;37338;47.426;19.204;2023-09-12T10:26:39;5.97;;;3.30;;
51266;SDS011;37338;47.426;19.204;2023-09-12T10:29:09;8.85;;;3.55;;
51266;SDS011;37338;47.426;19.204;2023-09-12T10:31:35;11.95;;;3.75;;
51266;SDS011;37338;47.426;19.204;2023-09-12T10:34:00;11.07;;;3.00;;
51266;SDS011;37338;47.426;19.204;2023-09-12T10:36:28;11.73;;;3.08;;
51266;SDS011;37338;47.426;19.204;2023-09-12T10:38:54;15.50;;;3.90;;
51266;SDS011;37338;47.426;19.204;2023-09-12T10:41:20;9.20;;;3.00;;
51266;SDS011;37338;47.426;19.204;2023-09-12T10:43:46;6.28;;;3.13;;
51266;SDS011;37338;47.426;19.204;2023-09-12T10:46:17;9.38;;;3.40;;
51266;SDS011;37338;47.426;19.204;2023-09-12T10:48:42;11.93;;;3.72;;
51266;SDS011;37338;47.426;19.204;2023-09-12T10:51:08;10.95;;;3.45;;
51266;SDS011;37338;47.426;19.204;2023-09-12T10:53:35;10.90;;;3.65;;
51266;SDS011;37338;47.426;19.204;2023-09-12T10:56:01;155.93;;;12.48;;
51266;SDS011;37338;47.426;19.204;2023-09-12T11:01:37;9.60;;;3.20;;
51266;SDS011;37338;47.426;19.204;2023-09-12T11:06:48;11.00;;;3.33;;
51266;SDS011;37338;47.426;19.204;2023-09-12T11:11:39;9.32;;;3.03;;
51266;SDS011;37338;47.426;19.204;2023-09-12T11:14:06;9.63;;;3.38;;
51266;SDS011;37338;47.426;19.204;2023-09-12T11:16:33;15.00;;;4.13;;
51266;SDS011;37338;47.426;19.204;2023-09-12T11:21:39;16.75;;;4.65;;
51266;SDS011;37338;47.426;19.204;2023-09-12T11:24:05;9.50;;;2.70;;
51266;SDS011;37338;47.426;19.204;2023-09-12T11:26:31;8.95;;;3.13;;
51266;SDS011;37338;47.426;19.204;2023-09-12T11:28:56;9.48;;;2.90;;
51266;SDS011;37338;47.426;19.204;2023-09-12T11:31:28;12.75;;;3.88;;
51266;SDS011;37338;47.426;19.204;2023-09-12T11:33:53;11.68;;;3.10;;
51266;SDS011;37338;47.426;19.204;2023-09-12T11:36:19;10.60;;;3.05;;
51266;SDS011;37338;47.426;19.204;2023-09-12T11:38:46;8.85;;;2.80;;
51266;SDS011;37338;47.426;19.204;2023-09-12T11:41:14;12.88;;;3.05;;
51266;SDS011;37338;47.426;19.204;2023-09-12T11:44:06;15.10;;;3.05;;
51266;SDS011;37338;47.426;19.204;2023-09-12T11:46:32;8.10;;;2.95;;
51266;SDS011;37338;47.426;19.204;2023-09-12T11:49:00;14.95;;;3.33;;
51266;SDS011;37338;47.426;19.204;2023-09-12T11:51:26;10.25;;;2.88;;
51266;SDS011;37338;47.426;19.204;2023-09-12T11:53:52;5.97;;;2.85;;
51266;SDS011;37338;47.426;19.204;2023-09-12T11:56:18;7.32;;;2.67;;
51266;SDS011;37338;47.426;19.204;2023-09-12T11:58:43;7.20;;;3.00;;
51266;SDS011;37338;47.426;19.204;2023-09-12T12:01:09;14.57;;;3.38;;
51266;SDS011;37338;47.426;19.204;2023-09-12T12:03:37;12.52;;;3.10;;
51266;SDS011;37338;47.426;19.204;2023-09-12T12:06:02;9.48;;;2.78;;
51266;SDS011;37338;47.426;19.204;2023-09-12T12:08:29;15.95;;;3.20;;
51266;SDS011;37338;47.426;19.204;2023-09-12T12:10:56;9.40;;;3.17;;
51266;SDS011;37338;47.426;19.204;2023-09-12T12:13:23;9.80;;;3.50;;
51266;SDS011;37338;47.426;19.204;2023-09-12T12:15:49;19.33;;;3.30;;
51266;SDS011;37338;47.426;19.204;2023-09-12T12:18:14;28.20;;;4.00;;
51266;SDS011;37338;47.426;19.204;2023-09-12T12:20:40;9.57;;;2.53;;
51266;SDS011;37338;47.426;19.204;2023-09-12T12:23:06;7.15;;;2.95;;
51266;SDS011;37338;47.426;19.204;2023-09-12T12:25:32;13.77;;;2.80;;
51266;SDS011;37338;47.426;19.204;2023-09-12T12:27:59;7.25;;;3.28;;
51266;SDS011;37338;47.426;19.204;2023-09-12T12:30:25;9.35;;;3.55;;
51266;SDS011;37338;47.426;19.204;2023-09-12T12:32:50;15.40;;;3.47;;
51266;SDS011;37338;47.426;19.204;2023-09-12T12:35:17;9.80;;;2.70;;
51266;SDS011;37338;47.426;19.204;2023-09-12T12:37:43;17.30;;;3.83;;
51266;SDS011;37338;47.426;19.204;2023-09-12T12:40:11;11.65;;;2.92;;
51266;SDS011;37338;47.426;19.204;2023-09-12T12:42:38;16.42;;;3.92;;
51266;SDS011;37338;47.426;19.204;2023-09-12T12:45:13;14.13;;;3.65;;
51266;SDS011;37338;47.426;19.204;2023-09-12T12:47:40;10.20;;;3.05;;
51266;SDS011;37338;47.426;19.204;2023-09-12T12:50:12;18.15;;;3.63;;
51266;SDS011;37338;47.426;19.204;2023-09-12T12:55:10;18.30;;;3.20;;
51266;SDS011;37338;47.426;19.204;2023-09-12T12:57:37;7.43;;;3.08;;
51266;SDS011;37338;47.426;19.204;2023-09-12T13:00:10;12.43;;;3.10;;
51266;SDS011;37338;47.426;19.204;2023-09-12T13:02:38;19.10;;;4.30;;
51266;SDS011;37338;47.426;19.204;2023-09-12T13:05:06;22.58;;;3.50;;
51266;SDS011;37338;47.426;19.204;2023-09-12T13:07:36;8.93;;;2.92;;
51266;SDS011;37338;47.426;19.204;2023-09-12T13:10:02;17.85;;;4.80;;
51266;SDS011;37338;47.426;19.204;2023-09-12T13:12:29;11.38;;;3.40;;
51266;SDS011;37338;47.426;19.204;2023-09-12T13:14:55;13.30;;;3.97;;
51266;SDS011;37338;47.426;19.204;2023-09-12T13:17:20;15.57;;;3.47;;
51266;SDS011;37338;47.426;19.204;2023-09-12T13:19:45;15.88;;;3.92;;
51266;SDS011;37338;47.426;19.204;2023-09-12T13:22:11;13.13;;;3.33;;
51266;SDS011;37338;47.426;19.204;2023-09-12T13:24:36;33.80;;;4.35;;
51266;SDS011;37338;47.426;19.204;2023-09-12T13:27:02;11.98;;;3.47;;
51266;SDS011;37338;47.426;19.204;2023-09-12T13:29:27;12.15;;;3.75;;
51266;SDS011;37338;47.426;19.204;2023-09-12T13:31:53;13.40;;;3.92;;
51266;SDS011;37338;47.426;19.204;2023-09-12T13:34:18;10.48;;;2.95;;
51266;SDS011;37338;47.426;19.204;2023-09-12T13:36:43;17.67;;;3.97;;
51266;SDS011;37338;47.426;19.204;2023-09-12T13:39:09;10.70;;;2.95;;
51266;SDS011;37338;47.426;19.204;2023-09-12T13:41:34;10.02;;;3.60;;
51266;SDS011;37338;47.426;19.204;2023-09-12T13:44:00;15.13;;;3.78;;
51266;SDS011;37338;47.426;19.204;2023-09-12T13:46:25;20.08;;;3.97;;
51266;SDS011;37338;47.426;19.204;2023-09-12T13:48:51;14.07;;;3.95;;
51266;SDS011;37338;47.426;19.204;2023-09-12T13:51:16;17.67;;;4.07;;
51266;SDS011;37338;47.426;19.204;2023-09-12T13:53:41;14.38;;;3.38;;
51266;SDS011;37338;47.426;19.204;2023-09-12T13:56:07;20.25;;;4.40;;
51266;SDS011;37338;47.426;19.204;2023-09-12T13:58:33;23.88;;;4.97;;
51266;SDS011;37338;47.426;19.204;2023-09-12T14:00:58;12.98;;;3.65;;
51266;SDS011;37338;47.426;19.204;2023-09-12T14:03:24;16.90;;;4.00;;
51266;SDS011;37338;47.426;19.204;2023-09-12T14:05:49;21.98;;;4.22;;
51266;SDS011;37338;47.426;19.204;2023-09-12T14:08:15;12.93;;;4.35;;
51266;SDS011;37338;47.426;19.204;2023-09-12T14:10:40;17.10;;;4.03;;
51266;SDS011;37338;47.426;19.204;2023-09-12T14:13:06;17.08;;;4.22;;
51266;SDS011;37338;47.426;19.204;2023-09-12T14:15:32;12.65;;;4.07;;
51266;SDS011;37338;47.426;19.204;2023-09-12T14:17:57;16.77;;;3.33;;
51266;SDS011;37338;47.426;19.204;2023-09-12T14:20:23;11.60;;;3.00;;
51266;SDS011;37338;47.426;19.204;2023-09-12T14:22:48;13.57;;;3.22;;
51266;SDS011;37338;47.426;19.204;2023-09-12T14:25:14;14.75;;;3.47;;
51266;SDS011;37338;47.426;19.204;2023-09-12T14:27:43;18.00;;;3.97;;
51266;SDS011;37338;47.426;19.204;2023-09-12T14:30:09;17.20;;;3.72;;
51266;SDS011;37338;47.426;19.204;2023-09-12T14:32:36;11.82;;;3.60;;
51266;SDS011;37338;47.426;19.204;2023-09-12T14:35:02;17.83;;;3.40;;
51266;SDS011;37338;47.426;19.204;2023-09-12T14:37:28;14.50;;;3.38;;
51266;SDS011;37338;47.426;19.204;2023-09-12T14:39:53;14.25;;;3.72;;
51266;SDS011;37338;47.426;19.204;2023-09-12T14:42:20;19.05;;;3.50;;
51266;SDS011;37338;47.426;19.204;2023-09-12T14:44:46;13.32;;;3.22;;
51266;SDS011;37338;47.426;19.204;2023-09-12T14:47:12;23.13;;;4.07;;